Nerchinskij Zavod, Russia
Current Conditions -  °F | °C
As of 5:30 PM on Thursday 23 Oct 2014 (Local Time) from UIAA Reporting Station
Broken Clouds Broken Clouds  
Wind Chill: 31°   Ceiling: 20000
Heat Index: 37°   Visibility: 6mi
Dew Point: 18°   Wind: 9mph
Humidity: 45%   Direction: 260°W
Pressure: 29.8"   Gusts: NA
Location:  51.32°N, 119.62°E
Report Text: UIAA 230830Z 26004MPS 9999 SCT050 BKN200 03/M08 Q1009 NOSIG RMKQFE698 29CLRD70
Loading
Personal Weather Stations






























Interactive Weather Map
Tropical Storm Tracking
New forecast layout! Learn more

10-Day Weather Forecast

Advertisements
Track Severe Weather on mobile